Auburn, Indiana
Current Conditions -  °F | °C
As of 8:55 PM on Monday 24 Nov 2014 (Local Time) from KGWB Reporting Station
Overcast Overcast  
Wind Chill: 22°   Ceiling: 2200
Heat Index: 34°   Visibility: 10mi
Dew Point: 27°   Wind: 21mph
Humidity: 75%   Direction: 240°WSW
Pressure: 29.73"   Gusts: 28mph
Location:  41.37°N, 85.05°W
Report Text: KGWB 250155Z AUTO 24018G24KT 10SM OVC022 01/M03 A2973 RMK AO2
Loading
Personal Weather Stations






























Interactive Weather Map New forecast layout! Learn more

10-Day Weather Forecast

Advertisements
Track Severe Weather on mobile